Time;durP1;ratioP1;P1;durP2;ratioP2;P2;SDS_P1;SDS_P2;PMS_P1;PMS_P2;Temp;Humidity;BMP_temperature;BMP_pressure;BME280_temperature;BME280_humidity;BME280_pressure;Samples;Min_cycle;Max_cycle;Signal;HPM_P1;HPM_P2
2023/01/29 05:02:13;;;;;;;4.57;4.47;;;2.80;99.90;;;;;;5114606;23;20247;-67
2023/01/29 05:04:42;;;;;;;4.03;3.42;;;2.70;99.90;;;;;;4942754;29;20228;-68
2023/01/29 05:07:13;;;;;;;12.02;4.20;;;2.80;99.90;;;;;;4943017;29;20689;-68
2023/01/29 05:09:43;;;;;;;7.07;6.57;;;2.80;99.90;;;;;;4947058;29;20257;-68
2023/01/29 05:12:12;;;;;;;4.40;4.07;;;2.70;99.90;;;;;;4946835;28;20233;-68
2023/01/29 05:14:42;;;;;;;2.88;2.67;;;2.70;99.90;;;;;;4944331;29;20221;-68
2023/01/29 05:17:14;;;;;;;5.07;4.13;;;2.70;99.90;;;;;;4945317;29;20243;-68
2023/01/29 05:19:41;;;;;;;10.20;6.20;;;2.70;99.90;;;;;;4946551;29;20216;-69
2023/01/29 05:22:11;;;;;;;10.43;6.70;;;2.70;99.90;;;;;;4941301;28;20244;-68
2023/01/29 05:24:37;;;;;;;2.92;2.65;;;2.70;99.90;;;;;;4931693;29;20592;-68
2023/01/29 05:29:49;;;;;;;3.40;3.30;;;2.70;99.90;;;;;;4939249;29;20670;-69
2023/01/29 05:32:17;;;;;;;9.63;5.22;;;2.70;99.90;;;;;;4947223;29;20321;-68
2023/01/29 05:34:43;;;;;;;2.88;2.75;;;2.70;99.90;;;;;;4930973;29;20222;-69
2023/01/29 05:37:10;;;;;;;5.13;3.65;;;2.70;99.90;;;;;;4941969;29;20209;-68
2023/01/29 05:39:37;;;;;;;12.57;5.15;;;2.70;99.90;;;;;;4946482;29;20662;-68
2023/01/29 05:42:04;;;;;;;6.25;5.28;;;2.70;99.90;;;;;;4945957;28;20232;-68
2023/01/29 05:44:31;;;;;;;8.65;3.60;;;2.70;99.90;;;;;;4935201;29;20643;-67
2023/01/29 05:46:58;;;;;;;2.47;1.90;;;2.70;99.90;;;;;;4934408;29;20211;-68
2023/01/29 05:49:26;;;;;;;3.33;3.05;;;2.70;99.90;;;;;;4941018;29;20221;-67
2023/01/29 05:51:52;;;;;;;4.47;1.77;;;2.60;99.90;;;;;;4949032;28;20229;-68
2023/01/29 05:54:19;;;;;;;9.10;6.78;;;2.60;99.90;;;;;;4932559;29;20671;-67
2023/01/29 05:56:46;;;;;;;5.93;5.43;;;2.60;99.90;;;;;;4933521;29;20206;-68
2023/01/29 05:59:12;;;;;;;2.97;2.78;;;2.60;99.90;;;;;;4941488;29;20558;-67
2023/01/29 06:01:39;;;;;;;5.85;4.63;;;2.60;99.90;;;;;;4940064;28;20242;-68
2023/01/29 06:04:06;;;;;;;2.33;2.33;;;2.60;99.90;;;;;;4932882;29;20216;-67
2023/01/29 06:06:34;;;;;;;4.25;3.55;;;2.60;99.90;;;;;;4934832;29;20581;-66
2023/01/29 06:09:01;;;;;;;5.40;5.07;;;2.60;99.90;;;;;;4934821;29;20233;-67
2023/01/29 06:11:27;;;;;;;2.38;2.10;;;2.60;99.90;;;;;;4940700;28;20237;-68
2023/01/29 06:13:54;;;;;;;7.13;4.20;;;2.60;99.90;;;;;;4937939;29;20234;-68
2023/01/29 06:16:21;;;;;;;4.28;3.97;;;2.60;99.90;;;;;;4939534;29;20230;-67
2023/01/29 06:18:47;;;;;;;3.72;3.50;;;2.60;99.90;;;;;;4940566;29;20220;-68
2023/01/29 06:21:14;;;;;;;7.00;3.58;;;2.60;99.90;;;;;;4932903;29;20237;-68
2023/01/29 06:23:42;;;;;;;8.27;4.15;;;2.60;99.90;;;;;;4942043;29;20209;-68
2023/01/29 06:26:11;;;;;;;5.80;4.05;;;2.60;99.90;;;;;;4933244;29;20217;-68
2023/01/29 06:28:38;;;;;;;2.83;2.75;;;2.60;99.90;;;;;;4939449;29;20697;-68
2023/01/29 06:31:06;;;;;;;3.42;3.22;;;2.60;99.90;;;;;;4932327;29;20237;-69
2023/01/29 06:33:33;;;;;;;3.95;3.58;;;2.60;99.90;;;;;;4941278;29;20240;-68
2023/01/29 06:36:01;;;;;;;13.73;4.68;;;2.60;99.90;;;;;;4930250;29;20222;-68
2023/01/29 06:38:28;;;;;;;3.58;3.47;;;2.60;99.90;;;;;;4933955;29;20236;-68
2023/01/29 06:40:57;;;;;;;3.22;3.00;;;2.60;99.90;;;;;;4930707;29;20567;-70
2023/01/29 06:43:23;;;;;;;3.70;3.47;;;2.60;99.90;;;;;;4933417;29;20211;-67
2023/01/29 06:45:52;;;;;;;2.30;1.73;;;2.60;99.90;;;;;;4932576;29;20206;-68
2023/01/29 06:48:19;;;;;;;6.93;5.25;;;2.60;99.90;;;;;;4940102;29;20697;-68
2023/01/29 06:50:48;;;;;;;9.18;3.70;;;2.60;99.90;;;;;;4939912;29;20226;-67
2023/01/29 06:53:15;;;;;;;7.43;3.83;;;2.60;99.90;;;;;;4932903;29;20226;-68
2023/01/29 06:55:42;;;;;;;3.50;3.30;;;2.60;99.90;;;;;;4932428;29;20230;-68
2023/01/29 06:58:12;;;;;;;3.17;3.00;;;2.60;99.90;;;;;;4935072;29;20220;-68
2023/01/29 07:00:39;;;;;;;6.72;5.88;;;2.70;99.90;;;;;;4938692;29;20603;-68
2023/01/29 07:03:05;;;;;;;4.32;2.42;;;2.70;99.90;;;;;;4938326;29;20240;-68
2023/01/29 07:05:32;;;;;;;3.00;2.72;;;2.70;99.90;;;;;;4932444;29;20613;-68
2023/01/29 07:07:59;;;;;;;12.05;6.30;;;2.70;99.90;;;;;;4931455;29;20206;-68
2023/01/29 07:10:26;;;;;;;6.00;5.20;;;2.70;99.90;;;;;;4942943;28;20205;-68
2023/01/29 07:12:53;;;;;;;4.20;3.63;;;2.70;99.90;;;;;;4942845;29;20201;-68
2023/01/29 07:15:21;;;;;;;3.42;3.08;;;2.70;99.90;;;;;;4941538;29;20209;-68
2023/01/29 07:17:58;;;;;;;4.93;4.30;;;2.70;99.90;;;;;;4950973;29;20211;-68
2023/01/29 07:20:26;;;;;;;5.90;4.45;;;2.70;99.90;;;;;;4938905;28;20255;-68
2023/01/29 07:22:52;;;;;;;5.57;3.58;;;2.70;99.90;;;;;;4942812;28;20256;-67
2023/01/29 07:25:19;;;;;;;3.97;3.88;;;2.70;99.90;;;;;;4934364;29;20202;-68
2023/01/29 07:27:46;;;;;;;4.13;3.90;;;2.70;99.90;;;;;;4937858;29;20280;-69
2023/01/29 07:30:14;;;;;;;4.15;2.90;;;2.70;99.90;;;;;;4943038;28;20562;-68
2023/01/29 07:32:42;;;;;;;3.97;2.58;;;2.70;99.90;;;;;;4941349;28;20205;-67
2023/01/29 07:35:10;;;;;;;8.18;2.85;;;2.70;99.90;;;;;;4933233;29;20229;-68
2023/01/29 07:37:37;;;;;;;7.32;2.72;;;2.70;99.90;;;;;;4936668;29;20209;-69
2023/01/29 07:40:09;;;;;;;4.80;4.25;;;2.70;99.90;;;;;;4942832;29;20209;-69
2023/01/29 07:42:37;;;;;;;5.55;5.20;;;2.70;99.90;;;;;;4943814;29;20276;-69
2023/01/29 07:45:04;;;;;;;4.28;3.88;;;2.70;99.90;;;;;;4928920;29;20528;-68
2023/01/29 07:47:31;;;;;;;8.02;3.92;;;2.70;99.90;;;;;;4940581;29;20216;-67
2023/01/29 07:49:59;;;;;;;11.23;4.10;;;2.70;99.90;;;;;;4938093;29;20205;-68
2023/01/29 07:52:25;;;;;;;25.10;5.38;;;2.70;99.90;;;;;;4943757;28;20698;-69
2023/01/29 07:54:52;;;;;;;6.13;4.20;;;2.70;99.90;;;;;;4932713;29;20229;-68
2023/01/29 07:57:19;;;;;;;8.63;3.75;;;2.70;99.90;;;;;;4931269;29;20221;-69
2023/01/29 07:59:45;;;;;;;7.32;5.60;;;2.70;99.90;;;;;;4944227;29;20709;-68
2023/01/29 08:02:12;;;;;;;10.15;4.50;;;2.70;99.90;;;;;;4929140;29;20246;-68
2023/01/29 08:04:39;;;;;;;10.70;6.03;;;2.70;99.90;;;;;;4931105;29;20214;-69
2023/01/29 08:07:08;;;;;;;3.45;3.25;;;2.70;99.90;;;;;;4932874;29;20309;-67
2023/01/29 08:09:35;;;;;;;4.50;2.65;;;2.80;99.90;;;;;;4939345;29;20214;-68
2023/01/29 08:12:01;;;;;;;4.53;3.90;;;2.80;99.90;;;;;;4931091;29;20233;-68
2023/01/29 08:14:28;;;;;;;4.70;4.38;;;2.80;99.90;;;;;;4931752;29;20232;-67
2023/01/29 08:16:55;;;;;;;4.10;3.83;;;2.80;99.90;;;;;;4931341;29;20218;-68
2023/01/29 08:19:22;;;;;;;3.92;3.72;;;2.80;99.90;;;;;;4940892;29;20214;-67
2023/01/29 08:21:48;;;;;;;8.18;7.35;;;2.80;99.90;;;;;;4930421;29;20703;-67
2023/01/29 08:24:17;;;;;;;11.15;7.95;;;2.90;99.90;;;;;;4931179;29;20216;-68
2023/01/29 08:26:43;;;;;;;4.43;3.65;;;2.90;99.90;;;;;;4940582;29;20209;-68
2023/01/29 08:29:11;;;;;;;5.63;4.05;;;2.90;99.90;;;;;;4937887;29;20210;-67
2023/01/29 08:31:37;;;;;;;6.63;6.03;;;2.90;99.90;;;;;;4937750;29;20229;-69
2023/01/29 08:34:04;;;;;;;3.58;2.10;;;2.90;99.90;;;;;;4941021;29;20622;-68
2023/01/29 08:36:31;;;;;;;5.45;4.38;;;3.00;99.90;;;;;;4933279;29;20221;-66
2023/01/29 08:38:57;;;;;;;8.38;7.55;;;3.00;99.90;;;;;;4945492;29;20209;-68
2023/01/29 08:41:26;;;;;;;8.57;4.97;;;3.00;99.90;;;;;;4946685;29;20233;-69
2023/01/29 08:43:52;;;;;;;4.88;4.35;;;3.10;99.90;;;;;;4939127;29;20205;-69
2023/01/29 08:46:19;;;;;;;6.55;3.85;;;3.10;99.90;;;;;;4944114;29;20205;-70
2023/01/29 08:48:46;;;;;;;17.48;6.18;;;3.20;99.90;;;;;;4939830;29;20210;-68
2023/01/29 08:51:13;;;;;;;6.22;3.42;;;3.20;99.90;;;;;;4943276;28;20333;-68
2023/01/29 08:53:39;;;;;;;4.10;3.70;;;3.20;99.90;;;;;;4946392;29;20227;-69
2023/01/29 08:56:06;;;;;;;7.93;5.70;;;3.20;99.90;;;;;;4941237;29;20217;-69
2023/01/29 08:58:34;;;;;;;7.88;4.88;;;3.30;99.90;;;;;;4936087;29;20206;-69
2023/01/29 09:01:09;;;;;;;5.15;4.38;;;3.30;99.90;;;;;;4936396;29;20444;-69
2023/01/29 09:03:36;;;;;;;7.95;5.13;;;3.30;99.90;;;;;;4935542;29;20692;-69
2023/01/29 09:06:03;;;;;;;4.85;3.70;;;3.40;99.90;;;;;;4937700;29;20218;-70
2023/01/29 09:08:30;;;;;;;5.85;4.90;;;3.50;99.90;;;;;;4935208;29;20202;-69
2023/01/29 09:10:58;;;;;;;9.82;5.65;;;3.50;99.90;;;;;;4936050;29;20559;-69
2023/01/29 09:13:25;;;;;;;6.00;4.10;;;3.50;99.90;;;;;;4936315;29;20217;-69
2023/01/29 09:15:53;;;;;;;8.18;5.63;;;3.60;99.90;;;;;;4942394;29;20206;-70
2023/01/29 09:18:21;;;;;;;14.02;7.82;;;3.60;99.90;;;;;;4933850;29;20206;-68
2023/01/29 09:20:47;;;;;;;5.10;4.45;;;3.60;99.90;;;;;;4934175;29;20231;-68
2023/01/29 09:23:14;;;;;;;9.45;7.43;;;3.70;99.90;;;;;;4941919;29;20209;-68
2023/01/29 09:25:43;;;;;;;3.63;3.38;;;3.70;99.90;;;;;;4941892;29;20221;-70
2023/01/29 09:28:09;;;;;;;13.18;7.47;;;3.80;99.90;;;;;;4934803;29;20218;-68
2023/01/29 09:30:37;;;;;;;12.95;8.02;;;3.80;99.90;;;;;;4940470;28;20238;-69
2023/01/29 09:33:05;;;;;;;7.30;4.82;;;3.80;99.90;;;;;;4932563;29;20238;-69
2023/01/29 09:35:32;;;;;;;11.20;8.52;;;3.80;99.90;;;;;;4929894;29;20226;-68
2023/01/29 09:37:59;;;;;;;11.38;6.90;;;3.80;99.90;;;;;;4934581;29;20206;-69
2023/01/29 09:40:30;;;;;;;9.88;8.80;;;3.90;99.90;;;;;;4931597;29;20210;-67
2023/01/29 09:43:02;;;;;;;7.90;5.93;;;3.90;99.90;;;;;;4928503;29;20589;-68
2023/01/29 09:45:31;;;;;;;7.72;5.80;;;3.90;99.90;;;;;;4943564;29;20206;-69
2023/01/29 09:48:00;;;;;;;10.35;9.25;;;4.00;99.90;;;;;;4934388;29;20264;-69
2023/01/29 09:50:32;;;;;;;5.25;4.65;;;4.00;99.90;;;;;;4942836;29;20205;-68
2023/01/29 09:53:05;;;;;;;10.95;5.50;;;4.00;99.90;;;;;;4924975;29;20207;-67
2023/01/29 09:55:37;;;;;;;9.45;7.55;;;4.00;99.90;;;;;;4932606;29;20570;-68
2023/01/29 09:58:11;;;;;;;6.78;5.10;;;4.00;99.90;;;;;;4941732;29;20571;-69
2023/01/29 10:00:44;;;;;;;10.70;8.07;;;4.10;99.90;;;;;;4937358;29;20234;-68
2023/01/29 10:03:29;;;;;;;22.05;8.40;;;4.10;99.90;;;;;;4928978;29;20301;-67
2023/01/29 10:06:12;;;;;;;9.93;7.55;;;4.10;99.90;;;;;;4941469;29;20206;-69
2023/01/29 10:09:02;;;;;;;17.33;7.57;;;4.10;99.90;;;;;;4931976;29;20643;-69
2023/01/29 10:11:38;;;;;;;12.63;9.35;;;4.10;99.90;;;;;;4929077;29;20222;-70
2023/01/29 10:14:14;;;;;;;21.65;6.72;;;4.20;99.90;;;;;;4931801;29;20239;-68
2023/01/29 10:16:55;;;;;;;15.18;9.02;;;4.20;99.90;;;;;;4935024;29;20215;-70
2023/01/29 10:19:55;;;;;;;12.75;8.13;;;4.20;99.90;;;;;;4943531;29;20217;-70
2023/01/29 10:22:45;;;;;;;7.70;6.97;;;4.20;99.90;;;;;;4940794;28;20225;-70
2023/01/29 10:25:15;;;;;;;11.68;8.32;;;4.20;99.90;;;;;;4928299;29;20203;-69
2023/01/29 10:27:48;;;;;;;11.43;6.32;;;4.20;99.90;;;;;;4941200;29;20206;-69
2023/01/29 10:30:27;;;;;;;13.27;7.18;;;4.20;99.90;;;;;;4933578;29;20224;-69
2023/01/29 10:32:56;;;;;;;13.95;7.95;;;4.20;99.90;;;;;;4949710;29;20626;-69
2023/01/29 10:35:28;;;;;;;10.27;6.00;;;4.20;99.90;;;;;;4932572;29;20325;-68
2023/01/29 10:38:02;;;;;;;5.40;4.93;;;4.20;99.90;;;;;;4945185;29;20217;-68
2023/01/29 10:40:37;;;;;;;8.70;7.18;;;4.20;99.90;;;;;;4942276;28;20217;-68
2023/01/29 10:43:08;;;;;;;4.18;3.75;;;4.20;99.90;;;;;;4934742;29;20226;-68
2023/01/29 10:45:45;;;;;;;9.00;7.10;;;4.20;99.90;;;;;;4933984;29;20229;-68
2023/01/29 10:48:40;;;;;;;10.55;9.10;;;4.20;99.90;;;;;;4934040;29;20213;-69
2023/01/29 10:51:16;;;;;;;7.43;5.15;;;4.20;99.90;;;;;;4940517;28;20302;-68
2023/01/29 10:53:59;;;;;;;9.25;5.72;;;4.20;99.90;;;;;;4935536;29;20221;-67
2023/01/29 10:56:46;;;;;;;15.48;8.63;;;4.20;99.90;;;;;;4940041;29;20564;-68
2023/01/29 10:59:29;;;;;;;9.82;7.38;;;4.20;99.90;;;;;;4932737;29;20250;-68
2023/01/29 11:01:58;;;;;;;14.32;7.18;;;4.30;99.90;;;;;;4944312;29;20232;-68
2023/01/29 11:04:26;;;;;;;15.80;7.65;;;4.20;99.90;;;;;;4929226;29;20203;-69
2023/01/29 11:06:53;;;;;;;7.43;6.22;;;4.30;99.90;;;;;;4943277;29;20214;-69
2023/01/29 11:09:28;;;;;;;16.85;9.27;;;4.30;99.90;;;;;;4938818;29;20212;-68
2023/01/29 11:12:00;;;;;;;16.27;7.82;;;4.30;99.90;;;;;;4933438;29;20229;-68
2023/01/29 11:14:29;;;;;;;15.48;7.80;;;4.40;99.90;;;;;;4929706;29;20234;-69
2023/01/29 11:16:56;;;;;;;11.52;6.10;;;4.40;99.90;;;;;;4944171;29;20209;-68
2023/01/29 11:19:37;;;;;;;11.05;6.40;;;4.40;99.90;;;;;;4933296;29;20209;-68
2023/01/29 11:22:04;;;;;;;14.50;6.47;;;4.40;99.90;;;;;;4937773;29;20230;-69
2023/01/29 11:24:32;;;;;;;8.70;5.60;;;4.40;99.90;;;;;;4932288;29;20206;-68
2023/01/29 11:27:00;;;;;;;10.02;7.10;;;4.50;99.90;;;;;;4937029;29;20221;-68
2023/01/29 11:29:34;;;;;;;7.40;5.20;;;4.50;99.90;;;;;;4937169;29;20221;-69
2023/01/29 11:32:03;;;;;;;9.35;6.00;;;4.50;99.90;;;;;;4933478;29;20301;-69
2023/01/29 11:34:30;;;;;;;11.95;7.13;;;4.60;99.90;;;;;;4931141;29;20226;-69
2023/01/29 11:36:59;;;;;;;6.90;5.00;;;4.60;99.90;;;;;;4930138;29;20260;-68
2023/01/29 11:39:27;;;;;;;10.75;7.13;;;4.60;99.90;;;;;;4932635;29;20213;-69
2023/01/29 11:41:59;;;;;;;10.65;6.45;;;4.60;99.90;;;;;;4944218;28;20258;-69
2023/01/29 11:44:31;;;;;;;8.73;7.05;;;4.60;99.90;;;;;;4945338;29;20243;-69
2023/01/29 11:47:12;;;;;;;6.68;5.97;;;4.60;99.90;;;;;;4949213;23;20256;-68
2023/01/29 11:49:44;;;;;;;5.93;4.50;;;4.60;99.90;;;;;;4950865;28;20209;-68
2023/01/29 11:52:12;;;;;;;7.63;4.90;;;4.60;99.90;;;;;;4952187;28;20221;-70
2023/01/29 11:54:44;;;;;;;8.23;6.40;;;4.60;99.90;;;;;;4947709;28;20226;-68
2023/01/29 11:57:24;;;;;;;4.00;3.65;;;4.60;99.90;;;;;;4946383;28;20257;-68
2023/01/29 11:59:52;;;;;;;8.20;7.47;;;4.60;99.90;;;;;;4951119;28;20228;-68
2023/01/29 12:02:29;;;;;;;7.35;5.95;;;4.60;99.90;;;;;;4950852;29;20217;-68
2023/01/29 12:04:59;;;;;;;7.13;5.88;;;4.60;99.90;;;;;;4947680;28;20281;-68
2023/01/29 12:07:27;;;;;;;20.20;11.75;;;4.70;99.90;;;;;;4955300;28;20329;-67
2023/01/29 12:09:56;;;;;;;9.75;5.65;;;4.70;99.90;;;;;;4954839;29;20218;-68
2023/01/29 12:12:40;;;;;;;9.68;4.35;;;4.80;99.90;;;;;;4954047;29;20301;-69
2023/01/29 12:15:18;;;;;;;14.25;8.73;;;4.80;99.90;;;;;;4953941;28;20309;-69
2023/01/29 12:18:01;;;;;;;12.88;7.70;;;4.80;99.90;;;;;;4948142;28;20237;-69
2023/01/29 12:20:34;;;;;;;7.78;5.78;;;4.80;99.90;;;;;;4954558;29;20207;-69
2023/01/29 12:23:07;;;;;;;6.88;4.25;;;4.80;99.90;;;;;;4944796;29;20212;-69
2023/01/29 12:25:50;;;;;;;7.10;6.47;;;4.80;99.90;;;;;;4954826;28;20822;-69
2023/01/29 12:28:41;;;;;;;8.02;5.07;;;4.80;99.90;;;;;;4949072;28;20230;-68
2023/01/29 12:31:22;;;;;;;5.93;5.40;;;4.80;99.90;;;;;;4952012;28;20222;-68
2023/01/29 12:33:53;;;;;;;6.88;6.25;;;4.80;99.90;;;;;;4955393;28;20232;-68
2023/01/29 12:36:24;;;;;;;10.65;7.95;;;4.80;99.90;;;;;;4946620;28;20546;-68
2023/01/29 12:38:51;;;;;;;6.47;5.80;;;4.80;99.90;;;;;;4953970;29;20225;-69
2023/01/29 12:41:32;;;;;;;13.90;5.78;;;4.70;99.90;;;;;;4955195;28;20701;-69
2023/01/29 12:44:05;;;;;;;17.85;6.25;;;4.70;99.90;;;;;;4953049;28;20614;-69
2023/01/29 12:46:38;;;;;;;4.30;4.10;;;4.80;99.90;;;;;;4954511;29;20242;-69
2023/01/29 12:49:13;;;;;;;11.02;6.13;;;4.80;99.90;;;;;;4953308;29;20215;-68
2023/01/29 12:51:48;;;;;;;8.27;6.35;;;4.90;99.90;;;;;;4953736;28;20209;-68
2023/01/29 12:54:21;;;;;;;6.90;6.45;;;4.90;99.90;;;;;;4953458;29;20206;-68
2023/01/29 12:56:51;;;;;;;15.65;6.70;;;4.90;99.90;;;;;;4954828;28;20254;-69
2023/01/29 12:59:24;;;;;;;5.43;4.22;;;4.80;99.90;;;;;;4954209;29;20210;-68
2023/01/29 13:01:54;;;;;;;5.60;5.28;;;4.80;99.90;;;;;;4955134;29;20240;-69
2023/01/29 13:04:28;;;;;;;3.83;3.53;;;4.80;99.90;;;;;;4954283;29;20219;-68
2023/01/29 13:07:03;;;;;;;6.07;5.53;;;4.80;99.90;;;;;;4955052;28;20233;-68
2023/01/29 13:09:33;;;;;;;7.32;6.82;;;4.90;99.90;;;;;;4948946;29;20224;-69
2023/01/29 13:12:04;;;;;;;5.82;5.35;;;4.80;99.90;;;;;;4953189;28;20210;-69
2023/01/29 13:14:42;;;;;;;10.98;7.88;;;4.80;99.90;;;;;;4950768;28;20952;-69
2023/01/29 13:17:13;;;;;;;3.90;3.40;;;4.80;99.90;;;;;;4952467;28;20229;-69
2023/01/29 13:19:44;;;;;;;6.43;5.60;;;4.70;99.90;;;;;;4951897;29;20201;-68
2023/01/29 13:22:19;;;;;;;9.73;6.60;;;4.70;99.90;;;;;;4952947;29;20369;-69
2023/01/29 13:24:45;;;;;;;4.55;3.72;;;4.80;99.90;;;;;;4946680;28;20216;-69
2023/01/29 13:27:21;;;;;;;7.70;7.05;;;4.80;99.90;;;;;;4952620;28;20578;-69
2023/01/29 13:29:50;;;;;;;5.97;5.40;;;4.80;99.90;;;;;;4953329;29;20209;-69
2023/01/29 13:32:22;;;;;;;10.23;6.22;;;4.70;99.90;;;;;;4953153;29;20210;-69
2023/01/29 13:34:50;;;;;;;7.72;6.00;;;4.70;99.90;;;;;;4952279;29;20220;-69
2023/01/29 13:37:26;;;;;;;5.75;5.25;;;4.70;99.90;;;;;;4952817;28;20226;-69
2023/01/29 13:39:55;;;;;;;8.15;4.88;;;4.70;99.90;;;;;;4952787;28;20678;-69
2023/01/29 13:42:24;;;;;;;6.18;5.50;;;4.70;99.90;;;;;;4951761;28;20575;-70
2023/01/29 13:44:55;;;;;;;13.83;8.40;;;4.70;99.90;;;;;;4951602;28;20474;-68
2023/01/29 13:47:25;;;;;;;10.95;6.47;;;4.70;99.90;;;;;;4954293;28;20500;-69
2023/01/29 13:49:59;;;;;;;4.78;4.38;;;4.70;99.90;;;;;;4954456;29;20556;-69
2023/01/29 13:52:35;;;;;;;11.38;6.15;;;4.70;99.90;;;;;;4954703;29;20215;-69
2023/01/29 13:55:05;;;;;;;5.15;4.60;;;4.70;99.90;;;;;;4953405;29;20674;-69
2023/01/29 13:57:53;;;;;;;9.93;3.50;;;4.70;99.90;;;;;;4952759;28;20711;-68
2023/01/29 14:00:57;;;;;;;6.90;6.28;;;4.70;99.90;;;;;;4951316;28;20284;-69
2023/01/29 14:03:55;;;;;;;6.72;6.05;;;4.70;99.90;;;;;;4954311;28;20205;-69
2023/01/29 14:06:50;;;;;;;7.53;6.57;;;4.70;99.90;;;;;;4953999;28;20311;-68
2023/01/29 14:09:53;;;;;;;5.45;4.25;;;4.70;99.90;;;;;;4931161;28;20210;-68
2023/01/29 14:12:41;;;;;;;6.55;5.38;;;4.70;99.90;;;;;;4953087;28;20205;-68
2023/01/29 14:15:29;;;;;;;10.70;7.93;;;4.60;99.90;;;;;;4947298;29;20645;-69
2023/01/29 14:18:04;;;;;;;9.73;5.65;;;4.70;99.90;;;;;;4953966;28;20269;-70
2023/01/29 14:20:37;;;;;;;7.32;5.57;;;4.60;99.90;;;;;;4951937;28;20363;-69
2023/01/29 14:23:06;;;;;;;5.50;4.95;;;4.60;99.90;;;;;;4947564;28;20214;-69
2023/01/29 14:25:37;;;;;;;6.72;5.93;;;4.60;99.90;;;;;;4954529;29;20206;-69
2023/01/29 14:28:13;;;;;;;9.23;6.53;;;4.50;99.90;;;;;;4963172;28;20234;-68
2023/01/29 14:30:40;;;;;;;8.50;5.03;;;4.50;99.90;;;;;;4962993;28;20213;-68
2023/01/29 14:33:25;;;;;;;9.48;5.50;;;4.50;99.90;;;;;;4961655;28;20249;-69
2023/01/29 14:35:55;;;;;;;9.77;6.18;;;4.50;99.90;;;;;;4957954;28;20248;-68
2023/01/29 14:38:25;;;;;;;4.15;3.85;;;4.40;99.90;;;;;;4956483;28;20646;-69
2023/01/29 14:41:03;;;;;;;14.90;6.22;;;4.40;99.90;;;;;;4953522;28;20217;-69
2023/01/29 14:43:30;;;;;;;7.50;6.22;;;4.40;99.90;;;;;;4954084;28;20209;-69
2023/01/29 14:46:35;;;;;;;3.97;3.67;;;4.40;99.90;;;;;;4951144;28;20202;-69
2023/01/29 14:49:02;;;;;;;6.15;4.15;;;4.30;99.90;;;;;;4955084;28;20221;-68
2023/01/29 14:51:38;;;;;;;5.55;5.05;;;4.20;99.90;;;;;;4952294;28;20235;-69
2023/01/29 14:54:14;;;;;;;4.53;4.22;;;4.20;99.90;;;;;;4949828;28;20216;-68
2023/01/29 14:56:45;;;;;;;17.35;6.90;;;4.20;99.90;;;;;;4942962;29;20235;-69
2023/01/29 14:59:17;;;;;;;5.80;4.68;;;4.10;99.90;;;;;;4952465;29;20209;-69
2023/01/29 15:01:48;;;;;;;7.90;5.18;;;4.10;99.90;;;;;;4952688;28;20232;-69
2023/01/29 15:04:20;;;;;;;6.22;5.72;;;4.10;99.90;;;;;;4951170;29;20220;-69
2023/01/29 15:06:54;;;;;;;5.97;5.47;;;4.10;99.90;;;;;;4952778;28;20317;-70
2023/01/29 15:09:31;;;;;;;7.60;4.88;;;4.10;99.90;;;;;;4952305;28;20240;-69
2023/01/29 15:12:05;;;;;;;6.00;4.30;;;4.10;99.90;;;;;;4951547;29;20202;-67
2023/01/29 15:14:33;;;;;;;5.55;4.60;;;4.10;99.90;;;;;;4948173;28;20248;-69
2023/01/29 15:17:17;;;;;;;9.27;6.35;;;4.10;99.90;;;;;;4951960;28;20233;-69
2023/01/29 15:19:46;;;;;;;4.65;4.30;;;4.10;99.90;;;;;;4952696;29;20530;-69
2023/01/29 15:22:17;;;;;;;10.95;7.28;;;4.00;99.90;;;;;;4952269;29;20217;-69
2023/01/29 15:24:45;;;;;;;12.32;6.88;;;4.00;99.90;;;;;;4952265;28;20232;-69
2023/01/29 15:27:16;;;;;;;10.23;3.97;;;4.00;99.90;;;;;;4953941;28;20229;-69
2023/01/29 15:29:47;;;;;;;7.53;4.20;;;4.00;99.90;;;;;;4954785;28;20206;-69
2023/01/29 15:32:26;;;;;;;16.15;7.00;;;4.00;99.90;;;;;;4954775;28;20213;-69
2023/01/29 15:34:54;;;;;;;4.53;4.13;;;3.90;99.90;;;;;;4952984;28;20199;-69
2023/01/29 15:37:31;;;;;;;5.82;5.30;;;3.90;99.90;;;;;;4952046;28;20237;-68
2023/01/29 15:39:59;;;;;;;7.10;4.88;;;3.90;99.90;;;;;;4955005;29;20205;-69
2023/01/29 15:42:28;;;;;;;6.65;5.10;;;3.90;99.90;;;;;;4951489;28;20557;-68
2023/01/29 15:44:55;;;;;;;6.82;5.50;;;3.90;99.90;;;;;;4951399;28;20209;-69
2023/01/29 15:47:26;;;;;;;11.35;7.45;;;3.90;99.90;;;;;;4950348;28;20320;-69
2023/01/29 15:49:56;;;;;;;13.50;7.57;;;3.80;99.90;;;;;;4950603;28;20213;-69
2023/01/29 15:52:26;;;;;;;5.88;4.88;;;3.80;99.90;;;;;;4949958;29;20582;-67
2023/01/29 15:54:56;;;;;;;7.30;6.22;;;3.80;99.90;;;;;;4944447;28;20916;-70
2023/01/29 15:57:26;;;;;;;8.80;6.07;;;3.80;99.90;;;;;;4946865;28;20241;-68
2023/01/29 15:59:56;;;;;;;8.88;6.20;;;3.80;99.90;;;;;;4952409;28;20213;-69
2023/01/29 16:02:35;;;;;;;6.55;6.03;;;3.80;99.90;;;;;;4952696;29;20212;-68
2023/01/29 16:05:03;;;;;;;8.82;6.28;;;3.80;99.90;;;;;;4951972;28;20217;-69
2023/01/29 16:07:32;;;;;;;3.58;3.28;;;3.80;99.90;;;;;;4952484;28;20240;-68
2023/01/29 16:10:00;;;;;;;11.23;6.95;;;3.80;99.90;;;;;;4952041;28;20662;-68
2023/01/29 16:12:28;;;;;;;7.00;6.60;;;3.80;99.90;;;;;;4948609;29;20214;-68
2023/01/29 16:14:55;;;;;;;11.65;7.03;;;3.70;99.90;;;;;;4951347;28;20206;-69
2023/01/29 16:17:27;;;;;;;12.20;6.07;;;3.80;99.90;;;;;;4950362;28;20296;-68
2023/01/29 16:19:58;;;;;;;13.43;8.98;;;3.80;99.90;;;;;;4951753;28;20197;-69
2023/01/29 16:22:26;;;;;;;6.22;4.20;;;3.70;99.90;;;;;;4950951;29;20205;-68
2023/01/29 16:24:54;;;;;;;6.95;5.75;;;3.80;99.90;;;;;;4950775;29;20210;-68
2023/01/29 16:27:24;;;;;;;10.32;3.95;;;3.70;99.90;;;;;;4950100;28;20317;-69
2023/01/29 16:29:51;;;;;;;4.70;4.22;;;3.70;99.90;;;;;;4951235;29;20201;-69
2023/01/29 16:32:20;;;;;;;4.03;3.22;;;3.70;99.90;;;;;;4949918;28;20236;-69
2023/01/29 16:34:50;;;;;;;7.93;5.97;;;3.70;99.90;;;;;;4951287;28;20209;-68
2023/01/29 16:37:22;;;;;;;9.75;7.50;;;3.70;99.90;;;;;;4951827;29;20253;-69
2023/01/29 16:39:51;;;;;;;14.43;5.47;;;3.70;99.90;;;;;;4951453;28;20909;-69
2023/01/29 16:42:27;;;;;;;7.15;6.43;;;3.70;99.90;;;;;;4951722;28;20573;-69
2023/01/29 16:45:00;;;;;;;7.63;4.97;;;3.70;99.90;;;;;;4951724;29;20227;-69
2023/01/29 16:47:33;;;;;;;11.45;7.00;;;3.70;99.90;;;;;;4950255;28;20240;-68
2023/01/29 16:50:01;;;;;;;6.65;4.70;;;3.70;99.90;;;;;;4951182;28;20213;-69
2023/01/29 16:52:30;;;;;;;4.20;3.53;;;3.70;99.90;;;;;;4954770;28;20219;-69
2023/01/29 16:55:14;;;;;;;8.68;7.82;;;3.70;99.90;;;;;;4955071;28;20217;-70
2023/01/29 16:57:44;;;;;;;5.03;4.63;;;3.70;99.90;;;;;;4952737;28;20587;-70
2023/01/29 17:00:19;;;;;;;8.02;7.50;;;3.70;99.90;;;;;;4954021;28;20221;-69
2023/01/29 17:02:46;;;;;;;9.23;4.85;;;3.70;99.90;;;;;;4955132;28;20633;-69
2023/01/29 17:05:20;;;;;;;7.47;6.85;;;3.70;99.90;;;;;;4952367;28;20209;-69
2023/01/29 17:07:47;;;;;;;9.35;8.18;;;3.70;99.90;;;;;;4945981;28;20221;-68
2023/01/29 17:10:18;;;;;;;4.55;4.07;;;3.70;99.90;;;;;;4952753;28;20225;-69
2023/01/29 17:12:53;;;;;;;4.43;4.13;;;3.70;99.90;;;;;;4951031;29;20615;-69
2023/01/29 17:15:32;;;;;;;17.00;6.53;;;3.70;99.90;;;;;;4951836;29;20284;-69
2023/01/29 17:18:00;;;;;;;10.95;5.63;;;3.70;99.90;;;;;;4945742;29;20229;-69
2023/01/29 17:20:26;;;;;;;8.95;8.45;;;3.70;99.90;;;;;;4953599;28;20214;-68
2023/01/29 17:22:53;;;;;;;8.07;6.82;;;3.70;99.90;;;;;;4950751;29;20689;-69
2023/01/29 17:25:20;;;;;;;4.53;4.22;;;3.70;99.90;;;;;;4949642;28;20217;-69
2023/01/29 17:27:51;;;;;;;20.10;8.15;;;3.70;99.90;;;;;;4951093;28;20225;-68
2023/01/29 17:30:19;;;;;;;12.40;6.22;;;3.60;99.90;;;;;;4951363;29;20201;-69
2023/01/29 17:32:46;;;;;;;7.13;6.03;;;3.60;99.90;;;;;;4955963;28;20212;-68
2023/01/29 17:35:13;;;;;;;8.90;4.85;;;3.60;99.90;;;;;;4953348;28;20285;-69
2023/01/29 17:37:40;;;;;;;12.63;9.98;;;3.60;99.90;;;;;;4952113;28;20288;-70
2023/01/29 17:40:18;;;;;;;8.38;7.40;;;3.60;99.90;;;;;;4949257;28;20216;-69
2023/01/29 17:42:45;;;;;;;3.25;2.97;;;3.60;99.90;;;;;;4949085;28;20220;-69
2023/01/29 17:45:14;;;;;;;8.73;5.45;;;3.60;99.90;;;;;;4949758;29;20292;-70
2023/01/29 17:47:40;;;;;;;7.03;5.28;;;3.60;99.90;;;;;;4956798;28;20244;-69
2023/01/29 17:50:17;;;;;;;5.30;4.80;;;3.60;99.90;;;;;;4952538;29;20589;-69
2023/01/29 17:52:44;;;;;;;10.98;2.35;;;3.60;99.90;;;;;;4952749;29;20201;-70
2023/01/29 17:55:11;;;;;;;10.18;7.47;;;3.50;99.90;;;;;;4949949;29;20582;-69
2023/01/29 17:57:37;;;;;;;12.52;7.40;;;3.50;99.90;;;;;;4950335;28;20248;-68
2023/01/29 18:00:09;;;;;;;6.72;6.22;;;3.50;99.90;;;;;;4944985;28;20217;-68
2023/01/29 18:02:37;;;;;;;8.65;7.80;;;3.50;99.90;;;;;;4952671;28;20213;-68
2023/01/29 18:05:05;;;;;;;4.18;3.88;;;3.50;99.90;;;;;;4953213;29;20217;-68
2023/01/29 18:07:31;;;;;;;11.23;5.70;;;3.50;99.90;;;;;;4952865;28;20236;-68
2023/01/29 18:09:58;;;;;;;6.60;4.53;;;3.50;99.90;;;;;;4959731;28;20217;-69
2023/01/29 18:12:25;;;;;;;8.73;7.78;;;3.50;99.90;;;;;;4952312;29;20213;-69
2023/01/29 18:14:52;;;;;;;7.50;6.88;;;3.50;99.90;;;;;;4952504;28;20210;-69
2023/01/29 18:17:21;;;;;;;6.95;6.15;;;3.40;99.90;;;;;;4951259;28;20239;-70
2023/01/29 18:19:49;;;;;;;8.40;5.38;;;3.40;99.90;;;;;;4947980;29;20587;-69